createdAt,value
2023-01-11T00:00:47.365Z,10.39
2023-01-11T00:03:15.328Z,10.30
2023-01-11T00:05:43.876Z,10.49
2023-01-11T00:08:11.453Z,10.46
2023-01-11T00:10:39.148Z,10.50
2023-01-11T00:13:06.617Z,10.44
2023-01-11T00:15:35.966Z,10.38
2023-01-11T00:18:03.238Z,10.45
2023-01-11T00:20:30.582Z,10.42
2023-01-11T00:22:58.566Z,10.43
2023-01-11T00:25:27.253Z,10.44
2023-01-11T00:27:55.789Z,10.35
2023-01-11T00:30:23.888Z,10.32
2023-01-11T00:32:59.768Z,10.32
2023-01-11T00:35:28.098Z,10.27
2023-01-11T00:37:55.317Z,10.27
2023-01-11T00:40:24.426Z,10.29
2023-01-11T00:43:09.778Z,10.22
2023-01-11T00:45:55.589Z,10.21
2023-01-11T00:48:23.008Z,10.23
2023-01-11T00:50:54.042Z,10.24
2023-01-11T00:53:21.705Z,10.28
2023-01-11T00:55:49.022Z,10.25
2023-01-11T00:58:16.439Z,10.25
2023-01-11T01:00:43.578Z,10.31
2023-01-11T01:03:10.689Z,10.22
2023-01-11T01:05:39.226Z,10.24
2023-01-11T01:08:06.733Z,10.29
2023-01-11T01:10:33.727Z,10.25
2023-01-11T01:13:22.199Z,10.27
2023-01-11T01:15:49.293Z,10.23
2023-01-11T01:18:32.082Z,10.16
2023-01-11T01:20:59.285Z,10.14
2023-01-11T01:23:26.358Z,10.11
2023-01-11T01:25:53.554Z,10.15
2023-01-11T01:28:22.523Z,10.13
2023-01-11T01:31:15.227Z,10.16
2023-01-11T01:34:09.390Z,10.02
2023-01-11T01:36:36.867Z,10.13
2023-01-11T01:39:05.402Z,10.15
2023-01-11T01:41:33.053Z,10.14
2023-01-11T01:44:02.247Z,9.92
2023-01-11T01:46:33.063Z,10.11
2023-01-11T01:49:02.946Z,10.11
2023-01-11T01:51:43.638Z,10.13
2023-01-11T01:54:17.399Z,10.15
2023-01-11T01:56:53.768Z,10.27
2023-01-11T01:59:23.681Z,10.23
2023-01-11T02:01:53.054Z,10.13
2023-01-11T02:04:29.016Z,10.08
2023-01-11T02:07:04.102Z,9.92
2023-01-11T02:09:57.535Z,10.08
2023-01-11T02:12:31.830Z,10.08
2023-01-11T02:15:02.799Z,10.07
2023-01-11T02:17:29.970Z,10.05
2023-01-11T02:20:08.504Z,10.06
2023-01-11T02:23:08.090Z,10.05
2023-01-11T02:26:00.726Z,10.11
2023-01-11T02:28:38.476Z,10.10
2023-01-11T02:31:12.309Z,10.11
2023-01-11T02:34:07.119Z,10.12
2023-01-11T02:36:46.156Z,10.05
2023-01-11T02:39:38.207Z,10.07
2023-01-11T02:42:56.337Z,10.08
2023-01-11T02:45:51.377Z,10.09
2023-01-11T02:48:24.054Z,10.06
2023-01-11T02:51:03.038Z,10.10
2023-01-11T02:53:37.635Z,9.99
2023-01-11T02:56:14.240Z,10.11
2023-01-11T02:58:44.792Z,10.05
2023-01-11T03:01:13.572Z,10.07
2023-01-11T03:03:40.834Z,10.08
2023-01-11T03:06:15.678Z,10.08
2023-01-11T03:09:25.572Z,10.12
2023-01-11T03:12:42.613Z,10.11
2023-01-11T03:15:38.593Z,10.07
2023-01-11T03:18:14.738Z,10.04
2023-01-11T03:20:55.524Z,10.11
2023-01-11T03:23:45.704Z,10.15
2023-01-11T03:26:35.303Z,10.06
2023-01-11T03:29:12.201Z,9.95
2023-01-11T03:31:59.995Z,10.16
2023-01-11T03:34:42.752Z,10.08
2023-01-11T03:37:19.451Z,10.07
2023-01-11T03:40:09.862Z,10.05
2023-01-11T03:43:01.528Z,9.97
2023-01-11T03:45:33.448Z,10.09
2023-01-11T03:48:03.679Z,10.04
2023-01-11T03:50:33.093Z,10.02
2023-01-11T03:53:04.546Z,10.05
2023-01-11T03:55:38.212Z,9.99
2023-01-11T03:58:06.695Z,9.95
2023-01-11T04:00:34.486Z,10.03
2023-01-11T04:03:02.615Z,10.13
2023-01-11T04:05:30.510Z,10.13
2023-01-11T04:07:57.826Z,10.17
2023-01-11T04:10:24.889Z,10.15
2023-01-11T04:12:52.233Z,10.19
2023-01-11T04:15:19.987Z,10.23
2023-01-11T04:17:49.631Z,10.18
2023-01-11T04:20:16.888Z,10.24
2023-01-11T04:22:44.144Z,10.17
2023-01-11T04:25:11.292Z,10.11
2023-01-11T04:27:38.709Z,10.20
2023-01-11T04:30:06.379Z,10.14
2023-01-11T04:32:33.519Z,10.11
2023-01-11T04:35:00.649Z,10.15
2023-01-11T04:37:27.750Z,10.14
2023-01-11T04:39:55.020Z,10.15
2023-01-11T04:42:22.547Z,10.08
2023-01-11T04:44:51.084Z,10.15
2023-01-11T04:47:20.490Z,10.01
2023-01-11T04:49:48.202Z,10.10
2023-01-11T04:52:18.388Z,10.13
2023-01-11T04:54:48.185Z,10.23
2023-01-11T04:57:18.152Z,10.23
2023-01-11T04:59:48.204Z,10.23
2023-01-11T05:02:16.603Z,10.22
2023-01-11T05:04:44.530Z,10.28
2023-01-11T05:07:11.935Z,10.46
2023-01-11T05:09:41.282Z,10.57
2023-01-11T05:12:08.630Z,10.64
2023-01-11T05:14:35.896Z,10.53
2023-01-11T05:17:03.093Z,10.54
2023-01-11T05:19:30.322Z,10.61
2023-01-11T05:22:00.431Z,10.56
2023-01-11T05:24:28.461Z,10.53
2023-01-11T05:26:55.646Z,10.58
2023-01-11T05:29:23.037Z,10.58
2023-01-11T05:31:50.654Z,10.58
2023-01-11T05:34:19.049Z,10.66
2023-01-11T05:36:46.776Z,10.53
2023-01-11T05:39:15.830Z,10.52
2023-01-11T05:41:43.677Z,10.58
2023-01-11T05:44:32.582Z,10.50
2023-01-11T05:46:59.851Z,10.60
2023-01-11T05:49:27.076Z,10.67
2023-01-11T05:51:54.457Z,10.64
2023-01-11T05:54:21.812Z,10.74
2023-01-11T05:56:49.121Z,10.72
2023-01-11T05:59:16.257Z,10.71
2023-01-11T06:01:44.033Z,10.76
2023-01-11T06:04:11.294Z,10.78
2023-01-11T06:06:38.779Z,10.77
2023-01-11T06:09:06.438Z,10.78
2023-01-11T06:11:33.889Z,10.72
2023-01-11T06:14:01.212Z,10.80
2023-01-11T06:16:28.665Z,10.84
2023-01-11T06:18:56.109Z,10.81
2023-01-11T06:21:24.574Z,10.83
2023-01-11T06:23:52.205Z,10.92
2023-01-11T06:26:21.579Z,10.87
2023-01-11T06:28:50.352Z,10.86
2023-01-11T06:31:18.921Z,10.82
2023-01-11T06:33:46.655Z,10.81
2023-01-11T06:36:15.287Z,10.91
2023-01-11T06:38:43.238Z,10.87
2023-01-11T06:41:12.399Z,10.97
2023-01-11T06:43:42.169Z,10.81
2023-01-11T06:46:16.097Z,11.00
2023-01-11T06:48:44.951Z,10.97
2023-01-11T06:51:13.720Z,11.02
2023-01-11T06:53:42.312Z,10.98
2023-01-11T06:56:19.675Z,10.95
2023-01-11T06:58:48.709Z,10.97
2023-01-11T07:01:17.670Z,10.89
2023-01-11T07:03:45.745Z,10.88
2023-01-11T07:06:16.133Z,10.90
2023-01-11T07:08:43.399Z,10.80
2023-01-11T07:11:10.657Z,10.93
2023-01-11T07:13:39.045Z,10.83
2023-01-11T07:16:06.538Z,10.79
2023-01-11T07:18:34.079Z,10.77
2023-01-11T07:21:03.228Z,10.80
2023-01-11T07:23:32.276Z,10.72
2023-01-11T07:26:00.381Z,10.76
2023-01-11T07:28:30.568Z,10.73
2023-01-11T07:30:59.908Z,10.71
2023-01-11T07:33:28.568Z,10.68
2023-01-11T07:35:57.087Z,10.77
2023-01-11T07:38:24.971Z,10.70
2023-01-11T07:40:52.462Z,10.66
2023-01-11T07:43:23.526Z,10.69
2023-01-11T07:45:52.689Z,10.70
2023-01-11T07:48:26.894Z,10.69
2023-01-11T07:50:55.250Z,10.63
2023-01-11T07:53:25.960Z,10.66
2023-01-11T07:55:56.067Z,10.65
2023-01-11T07:58:23.953Z,10.68
2023-01-11T08:00:51.487Z,10.66
2023-01-11T08:03:18.904Z,10.71
2023-01-11T08:05:51.748Z,10.54
2023-01-11T08:08:19.363Z,10.68
2023-01-11T08:10:46.763Z,10.68
2023-01-11T08:13:33.569Z,10.53
2023-01-11T08:16:00.801Z,10.65
2023-01-11T08:18:27.955Z,10.69
2023-01-11T08:20:55.167Z,10.73
2023-01-11T08:23:22.380Z,10.65
2023-01-11T08:25:49.907Z,10.84
2023-01-11T08:28:17.461Z,10.87
2023-01-11T08:30:45.171Z,10.94
2023-01-11T08:33:12.447Z,10.95
2023-01-11T08:35:40.448Z,10.80
2023-01-11T08:38:08.369Z,10.96
2023-01-11T08:40:35.981Z,10.96
2023-01-11T08:43:03.626Z,10.96
2023-01-11T08:45:31.015Z,10.99
2023-01-11T08:48:00.765Z,11.01
2023-01-11T08:50:28.022Z,10.95
2023-01-11T08:52:55.262Z,11.00
2023-01-11T08:55:22.806Z,10.99
2023-01-11T08:57:50.065Z,10.99
2023-01-11T09:00:18.120Z,10.99
2023-01-11T09:02:46.152Z,11.02
2023-01-11T09:05:13.563Z,11.09
2023-01-11T09:07:41.120Z,11.05
2023-01-11T09:10:09.105Z,11.07
2023-01-11T09:12:36.496Z,11.07
2023-01-11T09:15:06.400Z,11.06
2023-01-11T09:17:34.659Z,11.01
2023-01-11T09:20:02.054Z,11.06
2023-01-11T09:22:29.187Z,11.08
2023-01-11T09:24:59.406Z,11.12
2023-01-11T09:27:27.149Z,11.09
2023-01-11T09:29:54.525Z,11.12
2023-01-11T09:32:22.097Z,11.09
2023-01-11T09:34:50.053Z,11.15
2023-01-11T09:37:17.683Z,11.22
2023-01-11T09:39:45.106Z,11.19
2023-01-11T09:42:21.243Z,11.36
2023-01-11T09:45:05.568Z,11.38
2023-01-11T09:47:49.335Z,11.27
2023-01-11T09:50:30.527Z,11.45
2023-01-11T09:53:08.120Z,11.43
2023-01-11T09:55:41.429Z,11.47
2023-01-11T09:58:29.087Z,11.53
2023-01-11T10:01:01.527Z,11.58
2023-01-11T10:03:44.320Z,11.57
2023-01-11T10:06:24.759Z,11.61
2023-01-11T10:18:31.764Z,11.62
2023-01-11T10:19:17.055Z,11.79
2023-01-11T10:21:46.010Z,11.90
2023-01-11T10:24:25.545Z,11.90
2023-01-11T10:26:59.266Z,11.91
2023-01-11T10:29:58.102Z,11.91
2023-01-11T10:33:02.453Z,11.93
2023-01-11T10:35:58.510Z,11.97
2023-01-11T10:39:38.610Z,12.02
2023-01-11T10:42:13.094Z,12.06
2023-01-11T10:44:47.777Z,11.95
2023-01-11T10:47:24.101Z,12.07
2023-01-11T10:50:05.938Z,12.03
2023-01-11T10:52:42.270Z,11.97
2023-01-11T10:55:23.815Z,12.03
2023-01-11T10:58:08.835Z,12.06
2023-01-11T11:00:57.478Z,12.14
2023-01-11T11:03:52.598Z,12.14
2023-01-11T11:07:05.369Z,12.11
2023-01-11T11:09:35.865Z,12.15
2023-01-11T11:12:17.914Z,12.11
2023-01-11T11:15:04.029Z,12.26
2023-01-11T11:17:34.999Z,12.24
2023-01-11T11:20:18.345Z,12.21
2023-01-11T11:22:45.797Z,12.27
2023-01-11T11:25:20.088Z,12.26
2023-01-11T11:27:52.583Z,12.29
2023-01-11T11:30:30.857Z,12.28
2023-01-11T11:33:06.871Z,12.38
2023-01-11T11:36:02.687Z,12.49
2023-01-11T11:38:32.345Z,12.54
2023-01-11T11:41:12.841Z,12.51
2023-01-11T11:43:49.845Z,12.43
2023-01-11T11:46:20.615Z,12.31
2023-01-11T11:49:10.100Z,12.32
2023-01-11T11:51:38.800Z,12.31
2023-01-11T11:54:06.156Z,12.33
2023-01-11T11:56:34.888Z,12.31
2023-01-11T11:59:14.381Z,12.42
2023-01-11T12:01:52.816Z,12.27
2023-01-11T12:04:24.548Z,12.31
2023-01-11T12:07:08.548Z,12.30
2023-01-11T12:09:36.931Z,12.22
2023-01-11T12:12:04.885Z,12.22
2023-01-11T12:14:35.684Z,12.19
2023-01-11T12:17:25.989Z,12.27
2023-01-11T12:19:53.330Z,12.28
2023-01-11T12:22:26.347Z,12.22
2023-01-11T12:25:22.242Z,12.16
2023-01-11T12:28:02.637Z,12.07
2023-01-11T12:31:28.965Z,12.02
2023-01-11T12:34:07.658Z,11.97
2023-01-11T12:36:49.226Z,12.05
2023-01-11T12:39:34.714Z,12.03
2023-01-11T12:42:27.017Z,12.12
2023-01-11T12:45:17.231Z,12.21
2023-01-11T12:48:12.444Z,12.29
2023-01-11T12:51:12.524Z,12.29
2023-01-11T12:53:54.734Z,12.36
2023-01-11T12:56:48.067Z,12.39
2023-01-11T12:59:30.587Z,12.45
2023-01-11T13:02:29.436Z,12.46
2023-01-11T13:05:30.480Z,12.65
2023-01-11T13:08:18.191Z,12.65
2023-01-11T13:10:56.588Z,12.80
2023-01-11T13:13:56.837Z,12.94
2023-01-11T13:16:42.660Z,12.88
2023-01-11T13:19:21.871Z,12.82
2023-01-11T13:21:54.076Z,12.82
2023-01-11T13:24:26.838Z,12.70
2023-01-11T13:27:06.910Z,12.69
2023-01-11T13:29:46.172Z,12.80
2023-01-11T13:32:19.452Z,12.76
2023-01-11T13:35:04.165Z,12.91
2023-01-11T13:38:16.176Z,12.97
2023-01-11T13:40:48.908Z,12.83
2023-01-11T13:43:24.464Z,12.79
2023-01-11T13:46:17.970Z,12.73
2023-01-11T13:48:56.553Z,12.69
2023-01-11T13:51:37.438Z,12.53
2023-01-11T13:54:39.898Z,12.39
2023-01-11T13:57:13.691Z,12.19
2023-01-11T13:59:46.773Z,12.15
2023-01-11T14:02:48.405Z,12.28
2023-01-11T14:05:21.679Z,12.16
2023-01-11T14:08:12.738Z,12.19
2023-01-11T14:10:44.764Z,12.13
2023-01-11T14:13:52.707Z,12.11
2023-01-11T14:16:33.869Z,11.98
2023-01-11T14:19:15.037Z,11.85
2023-01-11T14:22:09.016Z,11.96
2023-01-11T14:24:38.164Z,11.93
2023-01-11T14:27:50.369Z,11.92
2023-01-11T14:30:40.266Z,12.07
2023-01-11T14:33:07.564Z,11.99
2023-01-11T14:35:52.766Z,11.96
2023-01-11T14:38:44.673Z,11.92
2023-01-11T14:41:23.271Z,11.90
2023-01-11T14:44:15.972Z,11.80
2023-01-11T14:46:55.713Z,11.76
2023-01-11T14:49:51.188Z,11.72
2023-01-11T14:52:38.528Z,11.60
2023-01-11T14:55:17.848Z,11.53
2023-01-11T14:58:02.105Z,11.50
2023-01-11T15:00:29.994Z,11.44
2023-01-11T15:03:08.247Z,11.53
2023-01-11T15:06:01.332Z,11.49
2023-01-11T15:08:42.558Z,11.46
2023-01-11T15:11:25.154Z,11.53
2023-01-11T15:13:59.520Z,11.41
2023-01-11T15:16:47.993Z,11.36
2023-01-11T15:19:36.953Z,11.46
2023-01-11T15:22:08.999Z,11.44
2023-01-11T15:24:42.314Z,11.26
2023-01-11T15:27:23.473Z,11.38
2023-01-11T15:29:57.820Z,11.33
2023-01-11T15:32:27.941Z,11.24
2023-01-11T15:35:23.939Z,11.46
2023-01-11T15:37:58.602Z,11.41
2023-01-11T15:40:29.705Z,11.42
2023-01-11T15:43:27.444Z,11.38
2023-01-11T15:46:56.498Z,11.32
2023-01-11T15:49:42.594Z,11.24
2023-01-11T15:52:42.456Z,11.10
2023-01-11T15:55:16.158Z,11.06
2023-01-11T15:57:54.368Z,10.95
2023-01-11T16:01:09.812Z,10.89
2023-01-11T16:04:01.743Z,10.81
2023-01-11T16:06:38.245Z,10.56
2023-01-11T16:09:11.561Z,10.63
2023-01-11T16:12:06.719Z,10.60
2023-01-11T16:15:11.501Z,10.54
2023-01-11T16:17:42.822Z,10.46
2023-01-11T16:20:26.580Z,10.38
2023-01-11T16:22:57.634Z,10.40
2023-01-11T16:25:30.825Z,10.33
2023-01-11T16:28:00.708Z,10.32
2023-01-11T16:30:28.901Z,10.26
2023-01-11T16:33:21.482Z,10.29
2023-01-11T16:35:49.806Z,10.17
2023-01-11T16:38:26.991Z,9.98
2023-01-11T16:40:55.568Z,9.98
2023-01-11T16:43:28.948Z,10.04
2023-01-11T16:45:56.461Z,9.99
2023-01-11T16:48:29.074Z,9.94
2023-01-11T16:51:10.458Z,9.86
2023-01-11T16:53:53.740Z,9.80
2023-01-11T16:56:23.823Z,9.65
2023-01-11T16:59:35.129Z,9.62
2023-01-11T17:02:04.008Z,9.36
2023-01-11T17:04:33.165Z,9.45
2023-01-11T17:07:24.994Z,9.38
2023-01-11T17:09:52.445Z,9.28
2023-01-11T17:12:27.018Z,9.21
2023-01-11T17:15:03.047Z,9.10
2023-01-11T17:17:37.611Z,9.11
2023-01-11T17:20:22.643Z,8.95
2023-01-11T17:22:54.071Z,8.94
2023-01-11T17:25:34.325Z,8.84
2023-01-11T17:28:16.756Z,8.72
2023-01-11T17:30:47.065Z,8.66
2023-01-11T17:33:34.161Z,8.62
2023-01-11T17:36:03.678Z,8.54
2023-01-11T17:38:31.594Z,8.52
2023-01-11T17:41:01.996Z,8.47
2023-01-11T17:44:09.013Z,8.39
2023-01-11T17:46:36.632Z,8.42
2023-01-11T17:49:03.887Z,8.14
2023-01-11T17:51:33.948Z,8.30
2023-01-11T17:54:04.761Z,8.38
2023-01-11T17:56:42.147Z,8.45
2023-01-11T17:59:24.460Z,8.50
2023-01-11T18:01:58.206Z,8.53
2023-01-11T18:05:02.428Z,8.63
2023-01-11T18:07:34.668Z,8.61
2023-01-11T18:10:03.791Z,8.64
2023-01-11T18:12:34.429Z,8.63
2023-01-11T18:15:07.901Z,8.59
2023-01-11T18:17:41.111Z,8.51
2023-01-11T18:20:15.003Z,8.37
2023-01-11T18:22:54.919Z,8.47
2023-01-11T18:25:26.610Z,8.37
2023-01-11T18:28:21.284Z,8.29
2023-01-11T18:30:54.319Z,8.28
2023-01-11T18:33:25.837Z,8.19
2023-01-11T18:35:58.761Z,8.17
2023-01-11T18:38:36.698Z,8.17
2023-01-11T18:41:26.718Z,8.13
2023-01-11T18:43:55.389Z,7.93
2023-01-11T18:46:23.226Z,7.96
2023-01-11T18:48:50.895Z,8.07
2023-01-11T18:51:32.187Z,7.96
2023-01-11T18:54:00.228Z,7.97
2023-01-11T18:56:27.612Z,7.90
2023-01-11T18:58:56.227Z,7.91
2023-01-11T19:01:23.559Z,7.88
2023-01-11T19:03:51.349Z,7.84
2023-01-11T19:06:21.392Z,7.87
2023-01-11T19:08:49.264Z,7.86
2023-01-11T19:11:17.100Z,7.86
2023-01-11T19:13:46.631Z,7.88
2023-01-11T19:16:15.472Z,7.83
2023-01-11T19:18:42.786Z,7.85
2023-01-11T19:21:12.343Z,7.96
2023-01-11T19:23:39.591Z,7.92
2023-01-11T19:26:08.146Z,7.87
2023-01-11T19:28:35.606Z,7.84
2023-01-11T19:31:08.031Z,7.79
2023-01-11T19:33:35.774Z,7.80
2023-01-11T19:36:10.366Z,7.73
2023-01-11T19:38:39.449Z,7.65
2023-01-11T19:41:09.166Z,7.63
2023-01-11T19:43:37.317Z,7.51
2023-01-11T19:46:04.948Z,7.55
2023-01-11T19:48:35.577Z,7.51
2023-01-11T19:51:05.755Z,7.43
2023-01-11T19:53:33.424Z,7.29
2023-01-11T19:56:02.105Z,7.36
2023-01-11T19:58:29.817Z,7.32
2023-01-11T20:00:57.098Z,7.31
2023-01-11T20:03:24.579Z,7.30
2023-01-11T20:05:52.046Z,7.36
2023-01-11T20:08:20.309Z,7.29
2023-01-11T20:10:47.963Z,7.24
2023-01-11T20:13:16.003Z,7.19
2023-01-11T20:15:44.065Z,7.14
2023-01-11T20:18:11.543Z,7.14
2023-01-11T20:20:39.040Z,7.09
2023-01-11T20:23:06.717Z,7.13
2023-01-11T20:25:36.183Z,7.08
2023-01-11T20:28:06.536Z,7.10
2023-01-11T20:30:33.954Z,7.12
2023-01-11T20:33:01.275Z,7.16
2023-01-11T20:35:28.752Z,7.10
2023-01-11T20:37:56.003Z,7.10
2023-01-11T20:40:23.350Z,7.12
2023-01-11T20:42:59.547Z,7.07
2023-01-11T20:45:29.767Z,7.01
2023-01-11T20:47:57.166Z,7.02
2023-01-11T20:50:24.782Z,6.94
2023-01-11T20:52:52.976Z,6.84
2023-01-11T20:55:20.412Z,6.92
2023-01-11T20:57:48.386Z,6.79
2023-01-11T21:00:16.103Z,6.84
2023-01-11T21:02:43.375Z,6.85
2023-01-11T21:05:11.312Z,6.78
2023-01-11T21:07:38.518Z,6.85
2023-01-11T21:10:06.356Z,6.85
2023-01-11T21:12:33.966Z,6.78
2023-01-11T21:15:01.217Z,6.74
2023-01-11T21:17:28.475Z,6.74
2023-01-11T21:19:55.817Z,6.69
2023-01-11T21:22:23.098Z,6.66
2023-01-11T21:24:50.566Z,6.62
2023-01-11T21:27:17.814Z,6.65
2023-01-11T21:29:45.383Z,6.59
2023-01-11T21:32:12.619Z,6.56
2023-01-11T21:34:40.001Z,6.63
2023-01-11T21:37:10.047Z,6.56
2023-01-11T21:39:37.289Z,6.37
2023-01-11T21:42:04.855Z,6.52
2023-01-11T21:44:34.318Z,6.55
2023-01-11T21:47:04.203Z,6.58
2023-01-11T21:49:32.987Z,6.57
2023-01-11T21:52:01.324Z,6.54
2023-01-11T21:54:29.621Z,6.58
2023-01-11T21:56:57.266Z,6.62
2023-01-11T21:59:25.065Z,6.61
2023-01-11T22:01:53.116Z,6.56
2023-01-11T22:04:21.412Z,6.53
2023-01-11T22:06:55.697Z,6.60
2023-01-11T22:09:26.476Z,6.58
2023-01-11T22:11:54.192Z,6.61
2023-01-11T22:14:22.432Z,6.61
2023-01-11T22:16:49.831Z,6.50
2023-01-11T22:19:17.829Z,6.53
2023-01-11T22:21:48.045Z,6.53
2023-01-11T22:24:19.343Z,6.52
2023-01-11T22:26:46.813Z,6.47
2023-01-11T22:29:16.798Z,6.46
2023-01-11T22:31:51.363Z,6.27
2023-01-11T22:34:19.918Z,6.33
2023-01-11T22:36:47.442Z,6.32
2023-01-11T22:39:16.387Z,6.26
2023-01-11T22:41:46.025Z,6.17
2023-01-11T22:44:14.406Z,6.29
2023-01-11T22:46:43.126Z,6.32
2023-01-11T22:49:11.289Z,6.28
2023-01-11T22:51:39.763Z,6.27
2023-01-11T22:54:07.482Z,6.32
2023-01-11T22:56:34.832Z,6.34
2023-01-11T22:59:02.833Z,6.24
2023-01-11T23:01:33.057Z,6.37
2023-01-11T23:04:01.180Z,6.40
2023-01-11T23:06:31.691Z,6.42
2023-01-11T23:08:59.693Z,6.34
2023-01-11T23:11:51.460Z,6.31
2023-01-11T23:14:20.387Z,6.27
2023-01-11T23:16:48.917Z,6.38
2023-01-11T23:19:19.780Z,6.37
2023-01-11T23:21:48.241Z,6.31
2023-01-11T23:24:17.265Z,6.17
2023-01-11T23:26:46.017Z,6.06
2023-01-11T23:29:13.761Z,6.25
2023-01-11T23:31:43.066Z,6.29
2023-01-11T23:34:12.325Z,6.22
2023-01-11T23:36:41.956Z,6.16
2023-01-11T23:39:15.302Z,6.20
2023-01-11T23:42:01.538Z,6.27
2023-01-11T23:44:29.316Z,6.23
2023-01-11T23:47:15.515Z,6.25
2023-01-11T23:49:44.105Z,6.28
2023-01-11T23:52:11.589Z,6.30
2023-01-11T23:54:38.804Z,6.37
2023-01-11T23:57:06.352Z,6.43
2023-01-11T23:59:33.730Z,6.47
